createdAt,value
2019-01-27T00:01:57.478Z,98864.67
2019-01-27T00:06:01.646Z,98862.54
2019-01-27T00:10:06.660Z,98856.45
2019-01-27T00:14:11.091Z,98842.55
2019-01-27T00:18:15.271Z,98839.94
2019-01-27T00:22:19.444Z,98835.63
2019-01-27T00:26:23.645Z,98834.75
2019-01-27T00:30:28.041Z,98839.14
2019-01-27T00:34:32.511Z,98832.17
2019-01-27T00:38:36.681Z,98827.80
2019-01-27T00:42:40.859Z,98816.04
2019-01-27T00:46:44.992Z,98812.14
2019-01-27T00:50:49.209Z,98790.80
2019-01-27T00:54:53.716Z,98794.72
2019-01-27T00:58:57.878Z,98780.33
2019-01-27T01:03:02.003Z,98772.02
2019-01-27T01:07:06.178Z,98765.91
2019-01-27T01:11:10.345Z,98780.28
2019-01-27T01:15:16.774Z,98781.59
2019-01-27T01:19:20.933Z,98768.53
2019-01-27T01:23:25.168Z,98763.28
2019-01-27T01:27:29.561Z,98753.28
2019-01-27T01:31:33.744Z,98745.85
2019-01-27T01:35:37.912Z,98736.68
2019-01-27T01:39:42.069Z,98740.56
2019-01-27T01:43:46.242Z,98736.64
2019-01-27T01:47:50.420Z,98737.95
2019-01-27T01:51:54.597Z,98727.05
2019-01-27T01:55:58.771Z,98723.11
2019-01-27T02:00:03.411Z,98715.70
2019-01-27T02:04:07.586Z,98707.39
2019-01-27T02:08:11.762Z,98697.81
2019-01-27T02:12:15.885Z,98691.73
2019-01-27T02:16:20.208Z,98681.27
2019-01-27T02:20:24.360Z,98689.95
2019-01-27T02:24:28.543Z,98687.77
2019-01-27T02:28:32.682Z,98691.65
2019-01-27T02:32:36.883Z,98687.70
2019-01-27T02:36:41.109Z,98678.48
2019-01-27T02:40:45.283Z,98678.00
2019-01-27T02:44:49.469Z,98672.33
2019-01-27T02:48:53.646Z,98671.83
2019-01-27T02:52:57.792Z,98673.95
2019-01-27T02:57:02.189Z,98666.02
2019-01-27T03:01:06.555Z,98668.55
2019-01-27T03:05:45.054Z,98664.12
2019-01-27T03:09:49.270Z,98657.94
2019-01-27T03:13:53.646Z,98656.09
2019-01-27T03:17:57.770Z,98668.17
2019-01-27T03:22:02.384Z,98655.89
2019-01-27T03:26:06.832Z,98658.41
2019-01-27T03:30:15.663Z,98655.27
2019-01-27T03:34:20.037Z,98658.65
2019-01-27T03:38:24.239Z,98653.76
2019-01-27T03:42:28.430Z,98645.05
2019-01-27T03:46:32.562Z,98645.41
2019-01-27T03:50:36.742Z,98644.46
2019-01-27T03:54:41.188Z,98646.59
2019-01-27T03:58:45.363Z,98640.14
2019-01-27T04:02:49.659Z,98631.89
2019-01-27T04:06:53.854Z,98627.15
2019-01-27T04:10:58.016Z,98620.70
2019-01-27T04:15:02.202Z,98622.80
2019-01-27T04:19:06.340Z,98614.51
2019-01-27T04:23:10.529Z,98615.77
2019-01-27T04:27:14.939Z,98607.08
2019-01-27T04:31:19.433Z,98609.68
2019-01-27T04:35:23.596Z,98599.72
2019-01-27T04:39:27.774Z,98604.94
2019-01-27T04:43:31.943Z,98596.30
2019-01-27T04:47:36.078Z,98584.58
2019-01-27T04:51:40.247Z,98571.09
2019-01-27T04:55:44.403Z,98570.17
2019-01-27T04:59:48.540Z,98560.61
2019-01-27T05:04:04.314Z,98555.38
2019-01-27T05:08:08.750Z,98547.39
2019-01-27T05:12:12.924Z,98545.58
2019-01-27T05:16:17.296Z,98538.65
2019-01-27T05:20:21.477Z,98537.27
2019-01-27T05:24:25.688Z,98525.84
2019-01-27T05:28:30.120Z,98536.63
2019-01-27T05:32:34.300Z,98529.16
2019-01-27T05:36:38.752Z,98523.41
2019-01-27T05:40:42.930Z,98520.25
2019-01-27T05:44:47.433Z,98507.47
2019-01-27T05:48:51.585Z,98513.38
2019-01-27T05:52:55.765Z,98508.95
2019-01-27T05:56:59.962Z,98505.88
2019-01-27T06:01:04.082Z,98506.19
2019-01-27T06:05:08.405Z,98495.60
2019-01-27T06:09:12.587Z,98501.45
2019-01-27T06:13:16.735Z,98505.12
2019-01-27T06:17:20.916Z,98510.37
2019-01-27T06:21:25.066Z,98487.62
2019-01-27T06:25:29.274Z,98484.66
2019-01-27T06:29:33.733Z,98488.62
2019-01-27T06:34:06.059Z,98489.39
2019-01-27T06:38:10.298Z,98480.25
2019-01-27T06:42:14.462Z,98472.81
2019-01-27T06:46:18.743Z,98475.80
2019-01-27T06:50:22.989Z,98478.77
2019-01-27T06:54:27.183Z,98470.81
2019-01-27T06:58:50.385Z,98468.59
2019-01-27T07:03:00.967Z,98475.90
2019-01-27T07:07:18.150Z,98462.11
2019-01-27T07:11:37.511Z,98450.48
2019-01-27T07:16:01.490Z,98457.40
2019-01-27T07:20:25.146Z,98462.58
2019-01-27T07:25:00.168Z,98462.19
2019-01-27T07:29:22.935Z,98465.34
2019-01-27T07:33:43.767Z,98456.37
2019-01-27T07:37:59.786Z,98440.82
2019-01-27T07:42:25.222Z,98431.55
2019-01-27T07:46:36.189Z,98422.72
2019-01-27T07:50:47.805Z,98416.21
2019-01-27T07:55:05.578Z,98412.69
2019-01-27T07:59:29.363Z,98416.24
2019-01-27T08:03:52.508Z,98406.05
2019-01-27T08:08:08.737Z,98406.67
2019-01-27T08:12:27.028Z,98392.29
2019-01-27T08:16:48.843Z,98388.27
2019-01-27T08:21:27.174Z,98393.41
2019-01-27T08:25:56.488Z,98404.30
2019-01-27T08:30:06.781Z,98399.56
2019-01-27T08:34:27.437Z,98376.95
2019-01-27T08:38:44.224Z,98365.59
2019-01-27T08:42:57.658Z,98365.84
2019-01-27T08:47:03.171Z,98367.93
2019-01-27T08:51:07.358Z,98372.24
2019-01-27T08:55:12.913Z,98380.55
2019-01-27T08:59:17.383Z,98383.23
2019-01-27T09:03:30.742Z,98362.64
2019-01-27T09:08:08.833Z,98361.22
2019-01-27T09:12:25.544Z,98375.56
2019-01-27T09:16:50.841Z,98377.36
2019-01-27T09:21:16.452Z,98373.14
2019-01-27T09:25:58.257Z,98365.08
2019-01-27T09:30:16.689Z,98364.24
2019-01-27T09:34:48.499Z,98366.06
2019-01-27T09:39:00.417Z,98359.25
2019-01-27T09:43:24.359Z,98359.31
2019-01-27T09:47:47.122Z,98355.83
2019-01-27T09:52:17.933Z,98330.73
2019-01-27T10:00:48.401Z,98340.99
2019-01-27T10:04:57.811Z,98347.04
2019-01-27T10:09:39.243Z,98351.05
2019-01-27T10:14:11.516Z,98342.53
2019-01-27T10:18:27.073Z,98327.89
2019-01-27T10:22:59.301Z,98317.91
2019-01-27T10:27:15.292Z,98315.09
2019-01-27T10:31:41.425Z,98302.95
2019-01-27T10:36:09.531Z,98309.02
2019-01-27T10:40:31.468Z,98289.23
2019-01-27T10:44:43.782Z,98290.98
2019-01-27T10:49:25.591Z,98292.20
2019-01-27T10:53:45.185Z,98287.83
2019-01-27T10:58:03.587Z,98276.80
2019-01-27T11:02:38.888Z,98283.20
2019-01-27T11:07:11.257Z,98266.36
2019-01-27T11:11:33.237Z,98249.65
2019-01-27T11:15:48.434Z,98234.00
2019-01-27T11:20:11.681Z,98214.43
2019-01-27T11:24:25.630Z,98221.20
2019-01-27T11:28:44.533Z,98211.68
2019-01-27T11:32:59.952Z,98206.09
2019-01-27T11:37:27.830Z,98192.73
2019-01-27T11:41:54.093Z,98180.72
2019-01-27T11:46:19.336Z,98193.67
2019-01-27T11:50:27.560Z,98175.08
2019-01-27T11:54:31.947Z,98161.36
2019-01-27T11:58:36.246Z,98164.07
2019-01-27T12:02:46.581Z,98162.78
2019-01-27T12:06:46.573Z,98161.48
2019-01-27T12:10:50.841Z,98158.48
2019-01-27T12:14:55.091Z,98139.55
2019-01-27T12:18:59.546Z,98128.30
2019-01-27T12:23:03.752Z,98117.50
2019-01-27T12:27:08.105Z,98133.50
2019-01-27T12:31:12.606Z,98133.11
2019-01-27T12:35:17.273Z,98135.45
2019-01-27T12:39:21.605Z,98135.92
2019-01-27T12:43:26.148Z,98138.14
2019-01-27T12:47:30.460Z,98130.36
2019-01-27T12:51:34.667Z,98119.61
2019-01-27T12:55:38.926Z,98095.41
2019-01-27T12:59:43.197Z,98092.30
2019-01-27T13:03:47.404Z,98086.33
2019-01-27T13:07:51.726Z,98101.59
2019-01-27T13:11:57.809Z,98121.93
2019-01-27T13:16:02.111Z,98101.09
2019-01-27T13:20:07.061Z,98103.28
2019-01-27T13:24:11.544Z,98106.34
2019-01-27T13:28:15.803Z,98095.22
2019-01-27T13:32:20.083Z,98086.64
2019-01-27T13:36:24.718Z,98066.78
2019-01-27T13:40:29.082Z,98064.65
2019-01-27T13:44:33.386Z,98062.08
2019-01-27T13:48:37.689Z,98058.67
2019-01-27T13:52:41.937Z,98071.21
2019-01-27T13:56:46.227Z,98063.88
2019-01-27T14:00:50.660Z,98064.76
2019-01-27T14:04:54.931Z,98057.37
2019-01-27T14:08:59.215Z,98073.02
2019-01-27T14:13:04.011Z,98066.14
2019-01-27T14:17:08.455Z,98063.60
2019-01-27T14:21:16.658Z,98065.39
2019-01-27T14:25:20.148Z,98050.38
2019-01-27T14:29:24.461Z,98049.53
2019-01-27T14:33:28.767Z,98057.84
2019-01-27T14:37:33.197Z,98050.61
2019-01-27T14:41:37.466Z,98048.91
2019-01-27T14:45:41.691Z,98047.55
2019-01-27T14:49:46.214Z,98040.20
2019-01-27T14:53:50.513Z,98035.83
2019-01-27T14:57:54.827Z,98043.17
2019-01-27T15:01:59.127Z,98046.59
2019-01-27T15:06:03.567Z,98052.16
2019-01-27T15:10:09.522Z,98052.55
2019-01-27T15:14:13.898Z,98048.66
2019-01-27T15:18:19.737Z,98036.55
2019-01-27T15:22:24.188Z,98040.86
2019-01-27T15:26:28.522Z,98037.34
2019-01-27T15:30:33.376Z,98035.58
2019-01-27T15:34:37.653Z,98041.20
2019-01-27T15:38:42.026Z,98023.05
2019-01-27T15:42:46.373Z,98029.45
2019-01-27T15:46:50.780Z,98024.23
2019-01-27T15:50:55.044Z,98035.37
2019-01-27T15:54:59.313Z,98028.01
2019-01-27T15:59:03.596Z,98033.19
2019-01-27T16:03:07.841Z,98027.54
2019-01-27T16:07:12.108Z,98033.66
2019-01-27T16:11:16.406Z,98026.32
2019-01-27T16:15:23.148Z,98022.46
2019-01-27T16:19:27.504Z,98011.23
2019-01-27T16:23:52.651Z,98018.56
2019-01-27T16:27:57.183Z,98025.05
2019-01-27T16:32:08.899Z,98015.53
2019-01-27T16:36:13.243Z,98007.33
2019-01-27T16:40:17.470Z,98004.72
2019-01-27T16:44:21.831Z,98009.45
2019-01-27T16:48:26.157Z,98000.35
2019-01-27T16:52:30.404Z,98006.00
2019-01-27T16:56:34.687Z,97992.55
2019-01-27T17:00:39.039Z,97983.89
2019-01-27T17:04:43.856Z,97978.64
2019-01-27T17:08:48.157Z,97982.92
2019-01-27T17:12:52.556Z,97979.91
2019-01-27T17:16:56.835Z,97982.50
2019-01-27T17:21:01.068Z,97980.78
2019-01-27T17:25:06.471Z,97969.97
2019-01-27T17:29:10.829Z,97974.27
2019-01-27T17:33:15.219Z,97978.63
2019-01-27T17:37:19.513Z,97963.05
2019-01-27T17:41:23.835Z,97964.73
2019-01-27T17:45:28.320Z,97943.12
2019-01-27T17:49:32.603Z,97955.60
2019-01-27T17:53:46.403Z,97964.65
2019-01-27T17:57:58.225Z,97966.38
2019-01-27T18:02:39.419Z,97956.90
2019-01-27T18:06:54.876Z,97973.84
2019-01-27T18:11:36.538Z,97976.03
2019-01-27T18:15:40.882Z,97982.47
2019-01-27T18:19:45.149Z,97983.80
2019-01-27T18:23:49.886Z,97976.89
2019-01-27T18:27:54.313Z,97985.55
2019-01-27T18:31:58.577Z,97990.77
2019-01-27T18:36:02.886Z,97994.23
2019-01-27T18:40:08.559Z,97989.89
2019-01-27T18:44:12.938Z,97989.03
2019-01-27T18:48:17.332Z,97984.67
2019-01-27T18:52:21.602Z,97981.22
2019-01-27T18:56:44.825Z,97991.63
2019-01-27T19:01:11.054Z,97988.55
2019-01-27T19:05:28.389Z,97981.61
2019-01-27T19:09:42.099Z,97985.44
2019-01-27T19:14:04.090Z,97976.83
2019-01-27T19:18:27.178Z,97985.52
2019-01-27T19:22:42.172Z,97987.28
2019-01-27T19:26:57.887Z,97984.28
2019-01-27T19:31:21.163Z,97983.02
2019-01-27T19:35:36.259Z,97980.86
2019-01-27T19:39:58.122Z,97977.83
2019-01-27T19:44:17.948Z,97976.09
2019-01-27T19:48:44.472Z,97971.77
2019-01-27T19:52:59.307Z,97970.86
2019-01-27T19:57:09.230Z,97970.83
2019-01-27T20:01:30.212Z,97975.16
2019-01-27T20:05:59.215Z,97974.28
2019-01-27T20:10:15.181Z,97969.12
2019-01-27T20:14:36.871Z,97966.52
2019-01-27T20:18:54.231Z,97959.19
2019-01-27T20:23:15.972Z,97952.64
2019-01-27T20:27:39.146Z,97957.80
2019-01-27T20:32:02.518Z,97960.88
2019-01-27T20:36:24.542Z,97966.52
2019-01-27T20:40:56.768Z,97963.50
2019-01-27T20:45:22.905Z,97959.62
2019-01-27T20:49:40.803Z,97944.91
2019-01-27T20:54:04.165Z,97933.67
2019-01-27T20:58:36.493Z,97927.14
2019-01-27T21:03:12.073Z,97910.22
2019-01-27T21:07:27.587Z,97905.79
2019-01-27T21:12:02.916Z,97927.36
2019-01-27T21:16:32.136Z,97925.68
2019-01-27T21:20:36.389Z,97933.48
2019-01-27T21:24:40.640Z,97933.93
2019-01-27T21:28:44.903Z,97927.87
2019-01-27T21:32:49.579Z,97928.29
2019-01-27T21:41:38.787Z,97915.34
2019-01-27T21:45:43.196Z,97908.35
2019-01-27T21:49:50.701Z,97906.60
2019-01-27T21:53:55.001Z,97910.49
2019-01-27T21:57:59.277Z,97916.94
2019-01-27T22:02:03.626Z,97921.67
2019-01-27T22:06:07.992Z,97935.11
2019-01-27T22:10:13.256Z,97927.34
2019-01-27T22:14:18.531Z,97923.00
2019-01-27T22:18:24.147Z,97929.94
2019-01-27T22:22:28.423Z,97912.21
2019-01-27T22:26:32.822Z,97913.49
2019-01-27T22:30:37.122Z,97912.16
2019-01-27T22:34:41.417Z,97909.12
2019-01-27T22:38:45.783Z,97908.27
2019-01-27T22:42:50.076Z,97915.14
2019-01-27T22:46:54.402Z,97907.38
2019-01-27T22:50:59.740Z,97908.19
2019-01-27T22:55:12.892Z,97900.38
2019-01-27T22:59:17.148Z,97897.40
2019-01-27T23:03:21.539Z,97892.60
2019-01-27T23:07:25.841Z,97889.62
2019-01-27T23:11:30.107Z,97879.27
2019-01-27T23:15:34.330Z,97878.78
2019-01-27T23:19:38.604Z,97889.13
2019-01-27T23:23:42.888Z,97889.15
2019-01-27T23:27:47.245Z,97890.02
2019-01-27T23:31:51.530Z,97885.73
2019-01-27T23:35:55.891Z,97874.89
2019-01-27T23:40:00.233Z,97874.45
2019-01-27T23:44:04.993Z,97881.84
2019-01-27T23:48:09.353Z,97875.31
2019-01-27T23:52:13.656Z,97877.85
2019-01-27T23:56:17.925Z,97869.27
